Terminal Aerodrome Forecast
Issued by NWS

Home | Current Version | Previous Version | Text Only | Print | Product List | Glossary On
Versions: 1 2 3 4 5 6 7 8 9 10 11 12 13
000
FTUS45 KVEF 020500
TAFEED
TAF
KEED 020532Z 0206/0306 VRB06KT P6SM SCT140 BKN250
     FM021600 20010G20KT P6SM VCSH BKN140
     FM022000 20010KT P6SM SCT090 BKN130 PROB30 0221/0303 VRB25G35KT
      TSRA BKN080CB=

USA.gov is the U.S. government's official web portal to all federal, state and local government web resources and services.